Decoded Metar for KFDW (FAIRFIELD COUNTY AIRPORT in SC, USA) (IATA:N/A) | Meteo·Mobile Aviation Weather
aviador You're here:

KFDW Decoded Metar

FAIRFIELD COUNTY AIRPORT in SC, USA
Report Time2018-12-19 05:55:00
UTC Time2018-12-19 05:51:34
Flight Rules vfr VFR
Wind120° at 05 kt
W.Decomp.*RWY 04: 0.3 kt HW 5.0 kt RCW
W.Rank120° ranks 25
Current wind is above 120° avg. (4.6)
Visibility9999 m
Phenomena:N/A
Clouds:N/A
Expected CloudBase > 2,800 ft AGL from Temp-Dew spread
CeilingNone
Temp07°C (ISA -7)
Dew Point00°C (61% RH)
AAT3.2°C
QNH1021 hPa
Density Alt-430 ft
Elevation577 ft
Report Wrong Elevation
Raw Report
METAR KFDW 190555Z AUTO 12005KT 10SM CLR 07/00 A3016 RMK AO1=

Extra information for KFDW:More info

Metar Taf Metar & Taf Last 4 Metars F.Rules Stats Wind Profile Meteogram Temp Stats Airport Information Weather charts Add Link Nearby VenuesMetar ALERT Operation Metar Decoded Social comments

AIRNAV info for KFDW